Архив погоды в Ижевске

Метеограмма Ижевск
Среда, 22 Мая
Время местн. Темп Ветер Видим Явления Облачность нижн/средн/верх Атм. давл. Влжн Точка росы ВНГО R Сост. почвы Tg s
Напр Скр Прв ур.ст ур.м изм
22:00 +11.9° Ю 2 4 10 км - преимущественно облачно 744 758 -0.3 54% +3° - - - - -
19:00 +17.4° З,Ю-З 2 4 10 км - облачно с прояснениями 744 758 -0.8 27% -1.7° - 0 - - -
16:00 +18.3° Ю-З 3 5 10 км - облачно с прояснениями 745 759 -1.3 25% -1.9° 2 км - - - -
13:00 +16° З 4 6 10 км - переменная облачность 746 761 -0.8 25% -3.8° 2 км - - - -
10:00 +13.9° З 3 5 10 км - незначительная облачность 747 762 -0.9 40% +0.4° 2 км - - - -
07:00 +5.8° штиль 0 2 10 км - переменная облачность 748 763 +0.2 67% +0.1° - 0 Сухая (без трещин) - -
04:00 +3.3° штиль 0 2 10 км - переменная облачность 748 763 +0.1 73% -1.1° - - - - -
01:00 +6.2° штиль 0 2 10 км - переменная облачность 748 762 +0.2 62% -0.6° - - - - -
Вторник, 21 Мая
Время местн. Темп Ветер Видим Явления Облачность нижн/средн/верх Атм. давл. Влжн Точка росы ВНГО R Сост. почвы Tg s
Напр Скр Прв ур.ст ур.м изм
22:00 +8.4° З,С-З 2 3 10 км - переменная облачность 748 762 +0.4 44% -3° 1.5 км - - - -
19:00 +13.4° С,С-З 5 7 10 км - переменная облачность 747 762 +0.2 28% -4.7° 1.5 км 0 - - -
16:00 +14.4° С-З 5 6 10 км - переменная облачность 747 761 -0.7 26% -5° 2 км - - - -
13:00 +12.8° С,С-З 6 8 10 км - переменная облачность 748 762 +0.2 28% -5° 2 км - - - -
10:00 +10.6° С-З 7 8 10 км - переменная облачность 748 762 +0.1 30% -6.4° 2 км - - - -
07:00 +4.4° С-З 2 4 10 км - незначительная облачность 747 762 +0.5 69% -0.7° - 0 Влажная (без луж) - -
04:00 +2.1° штиль 0 2 10 км - незначительная облачность 747 762 +0.4 75% -1.9° - - - - -
01:00 +3.4° С-З 2 3 10 км - переменная облачность 747 762 +0.5 68% -2° - - - - -
Понедельник, 20 Мая
Время местн. Темп Ветер Видим Явления Облачность нижн/средн/верх Атм. давл. Влжн Точка росы ВНГО R Сост. почвы Tg s
Напр Скр Прв ур.ст ур.м изм
22:00 +6° С 3 5 10 км - переменная облачность 746 761 +0.8 58% -1.6° - - - - -
19:00 +10.9° З,С-З 5 9 10 км - облачно с прояснениями 745 760 -0.2 55% +2.3° 1.5 км 0 - - -
16:00 +10° З,С-З 5 8 10 км небо без изменений {ливневые осадки} облачно с прояснениями 746 760 +0.3 55% +1.3° 1 км - - - -
13:00 +7.5° З,С-З 5 8 10 км ливневый дождь преимущественно облачно 745 760 +0.2 67% +1.7° 1 км - - - -
10:00 +4.8° С-З 4 6 10 км - облачно 745 760 +0.2 81% +1.8° 1 км - - - -
07:00 +3.4° С,С-З 3 4 10 км - облачно 745 760 +0.3 86% +1.3° 1 км 0 Влажная (без луж) - -
04:00 +2.3° С-З 3 5 10 км - облачно 745 760 +0.4 91% +1° 1 км - - - -
01:00 +3.2° С-З 4 6 10 км - облачно с прояснениями 744 759 +0.6 90% +1.7° - - - - -
Воскресенье, 19 Мая
Время местн. Темп Ветер Видим Явления Облачность нижн/средн/верх Атм. давл. Влжн Точка росы ВНГО R Сост. почвы Tg s
Напр Скр Прв ур.ст ур.м изм
22:00 +3.6° С,С-З 4 6 10 км небо без изменений {ливневые осадки} переменная облачность 744 759 +1.3 91% +2.3° 1.5 км - - - -
19:00 +6.3° С-З 8 12 10 км ливневый дождь преимущественно облачно 742 757 +0.6 72% +1.6° 1 км 2 - - -